sensor_id;sensor_type;location;lat;lon;timestamp;temperature;humidity
37910;DHT22;23741;49.446;8.754;2022-11-13T00:01:18;11.30;69.80
37910;DHT22;23741;49.446;8.754;2022-11-13T00:03:39;11.30;69.70
37910;DHT22;23741;49.446;8.754;2022-11-13T00:06:00;11.30;69.70
37910;DHT22;23741;49.446;8.754;2022-11-13T00:08:20;11.30;69.70
37910;DHT22;23741;49.446;8.754;2022-11-13T00:10:40;11.30;69.50
37910;DHT22;23741;49.446;8.754;2022-11-13T00:13:01;11.30;70.20
37910;DHT22;23741;49.446;8.754;2022-11-13T00:15:21;11.30;69.30
37910;DHT22;23741;49.446;8.754;2022-11-13T00:17:41;11.30;69.30
37910;DHT22;23741;49.446;8.754;2022-11-13T00:20:01;11.30;69.30
37910;DHT22;23741;49.446;8.754;2022-11-13T00:22:21;11.30;70.00
37910;DHT22;23741;49.446;8.754;2022-11-13T00:24:41;11.40;69.30
37910;DHT22;23741;49.446;8.754;2022-11-13T00:27:02;11.30;69.30
37910;DHT22;23741;49.446;8.754;2022-11-13T00:29:22;11.30;69.20
37910;DHT22;23741;49.446;8.754;2022-11-13T00:31:42;11.30;69.10
37910;DHT22;23741;49.446;8.754;2022-11-13T00:34:02;11.30;69.00
37910;DHT22;23741;49.446;8.754;2022-11-13T00:36:42;11.30;68.90
37910;DHT22;23741;49.446;8.754;2022-11-13T00:39:03;11.30;68.90
37910;DHT22;23741;49.446;8.754;2022-11-13T00:41:23;11.30;68.80
37910;DHT22;23741;49.446;8.754;2022-11-13T00:43:43;11.30;68.70
37910;DHT22;23741;49.446;8.754;2022-11-13T00:46:04;11.20;68.50
37910;DHT22;23741;49.446;8.754;2022-11-13T00:48:24;11.20;68.50
37910;DHT22;23741;49.446;8.754;2022-11-13T00:50:45;11.20;68.40
37910;DHT22;23741;49.446;8.754;2022-11-13T00:53:05;11.20;68.20
37910;DHT22;23741;49.446;8.754;2022-11-13T00:55:26;11.10;68.10
37910;DHT22;23741;49.446;8.754;2022-11-13T00:57:46;11.10;68.10
37910;DHT22;23741;49.446;8.754;2022-11-13T01:00:06;11.00;68.10
37910;DHT22;23741;49.446;8.754;2022-11-13T01:02:27;11.00;68.10
37910;DHT22;23741;49.446;8.754;2022-11-13T01:04:47;11.00;68.10
37910;DHT22;23741;49.446;8.754;2022-11-13T01:07:07;10.90;68.10
37910;DHT22;23741;49.446;8.754;2022-11-13T01:09:27;10.90;68.20
37910;DHT22;23741;49.446;8.754;2022-11-13T01:11:47;10.80;68.10
37910;DHT22;23741;49.446;8.754;2022-11-13T01:14:08;10.80;68.10
37910;DHT22;23741;49.446;8.754;2022-11-13T01:16:28;10.70;68.10
37910;DHT22;23741;49.446;8.754;2022-11-13T01:18:48;10.70;68.10
37910;DHT22;23741;49.446;8.754;2022-11-13T01:21:10;10.70;68.20
37910;DHT22;23741;49.446;8.754;2022-11-13T01:23:30;10.60;68.20
37910;DHT22;23741;49.446;8.754;2022-11-13T01:25:51;10.60;68.30
37910;DHT22;23741;49.446;8.754;2022-11-13T01:28:11;10.60;68.30
37910;DHT22;23741;49.446;8.754;2022-11-13T01:30:31;10.50;68.20
37910;DHT22;23741;49.446;8.754;2022-11-13T01:32:52;10.50;68.20
37910;DHT22;23741;49.446;8.754;2022-11-13T01:35:12;10.50;68.30
37910;DHT22;23741;49.446;8.754;2022-11-13T01:37:32;10.50;68.40
37910;DHT22;23741;49.446;8.754;2022-11-13T01:39:53;10.50;68.60
37910;DHT22;23741;49.446;8.754;2022-11-13T01:42:13;10.40;68.70
37910;DHT22;23741;49.446;8.754;2022-11-13T01:47:06;10.50;69.00
37910;DHT22;23741;49.446;8.754;2022-11-13T01:49:31;10.40;68.90
37910;DHT22;23741;49.446;8.754;2022-11-13T01:51:58;10.40;70.00
37910;DHT22;23741;49.446;8.754;2022-11-13T01:54:20;10.40;69.30
37910;DHT22;23741;49.446;8.754;2022-11-13T01:56:41;10.40;69.50
37910;DHT22;23741;49.446;8.754;2022-11-13T01:59:04;10.50;69.80
37910;DHT22;23741;49.446;8.754;2022-11-13T02:01:25;10.50;69.70
37910;DHT22;23741;49.446;8.754;2022-11-13T02:03:46;10.50;70.40
37910;DHT22;23741;49.446;8.754;2022-11-13T02:06:06;10.50;69.70
37910;DHT22;23741;49.446;8.754;2022-11-13T02:08:27;10.50;70.60
37910;DHT22;23741;49.446;8.754;2022-11-13T02:10:48;10.60;70.70
37910;DHT22;23741;49.446;8.754;2022-11-13T02:13:08;10.60;69.80
37910;DHT22;23741;49.446;8.754;2022-11-13T02:15:29;10.60;70.60
37910;DHT22;23741;49.446;8.754;2022-11-13T02:17:56;10.60;69.70
37910;DHT22;23741;49.446;8.754;2022-11-13T02:20:23;10.60;70.40
37910;DHT22;23741;49.446;8.754;2022-11-13T02:25:09;10.60;69.30
37910;DHT22;23741;49.446;8.754;2022-11-13T02:27:38;10.60;70.00
37910;DHT22;23741;49.446;8.754;2022-11-13T02:30:09;10.60;69.10
37910;DHT22;23741;49.446;8.754;2022-11-13T02:32:40;10.60;69.20
37910;DHT22;23741;49.446;8.754;2022-11-13T02:35:00;10.60;69.20
37910;DHT22;23741;49.446;8.754;2022-11-13T02:37:20;10.60;69.20
37910;DHT22;23741;49.446;8.754;2022-11-13T02:39:41;10.60;69.10
37910;DHT22;23741;49.446;8.754;2022-11-13T02:42:01;10.60;69.00
37910;DHT22;23741;49.446;8.754;2022-11-13T02:44:21;10.60;69.00
37910;DHT22;23741;49.446;8.754;2022-11-13T02:46:41;10.60;69.80
37910;DHT22;23741;49.446;8.754;2022-11-13T02:49:01;10.50;68.80
37910;DHT22;23741;49.446;8.754;2022-11-13T02:51:22;10.50;68.80
37910;DHT22;23741;49.446;8.754;2022-11-13T02:53:42;10.50;68.70
37910;DHT22;23741;49.446;8.754;2022-11-13T02:56:02;10.50;68.70
37910;DHT22;23741;49.446;8.754;2022-11-13T02:58:23;10.50;68.80
37910;DHT22;23741;49.446;8.754;2022-11-13T03:00:43;10.40;68.80
37910;DHT22;23741;49.446;8.754;2022-11-13T03:03:03;10.40;68.80
37910;DHT22;23741;49.446;8.754;2022-11-13T03:05:23;10.40;69.50
37910;DHT22;23741;49.446;8.754;2022-11-13T03:07:43;10.40;68.90
37910;DHT22;23741;49.446;8.754;2022-11-13T03:10:03;10.40;69.70
37910;DHT22;23741;49.446;8.754;2022-11-13T03:12:24;10.30;69.70
37910;DHT22;23741;49.446;8.754;2022-11-13T03:14:44;10.30;69.80
37910;DHT22;23741;49.446;8.754;2022-11-13T03:17:04;10.30;68.90
37910;DHT22;23741;49.446;8.754;2022-11-13T03:19:24;10.30;68.90
37910;DHT22;23741;49.446;8.754;2022-11-13T03:21:45;10.30;68.80
37910;DHT22;23741;49.446;8.754;2022-11-13T03:24:05;10.30;68.80
37910;DHT22;23741;49.446;8.754;2022-11-13T03:26:25;10.30;68.80
37910;DHT22;23741;49.446;8.754;2022-11-13T03:28:48;10.30;69.10
37910;DHT22;23741;49.446;8.754;2022-11-13T03:31:09;10.30;69.90
37910;DHT22;23741;49.446;8.754;2022-11-13T03:33:29;10.30;69.00
37910;DHT22;23741;49.446;8.754;2022-11-13T03:35:50;10.30;69.00
37910;DHT22;23741;49.446;8.754;2022-11-13T03:38:10;10.30;68.90
37910;DHT22;23741;49.446;8.754;2022-11-13T03:40:30;10.30;68.90
37910;DHT22;23741;49.446;8.754;2022-11-13T03:42:50;10.20;68.90
37910;DHT22;23741;49.446;8.754;2022-11-13T03:45:11;10.20;69.00
37910;DHT22;23741;49.446;8.754;2022-11-13T03:47:31;10.20;69.00
37910;DHT22;23741;49.446;8.754;2022-11-13T03:49:51;10.20;68.90
37910;DHT22;23741;49.446;8.754;2022-11-13T03:52:11;10.20;68.90
37910;DHT22;23741;49.446;8.754;2022-11-13T03:54:31;10.20;69.10
37910;DHT22;23741;49.446;8.754;2022-11-13T03:56:51;10.20;69.10
37910;DHT22;23741;49.446;8.754;2022-11-13T03:59:12;10.20;69.00
37910;DHT22;23741;49.446;8.754;2022-11-13T04:01:32;10.20;69.00
37910;DHT22;23741;49.446;8.754;2022-11-13T04:03:53;10.20;69.20
37910;DHT22;23741;49.446;8.754;2022-11-13T04:06:13;10.20;69.40
37910;DHT22;23741;49.446;8.754;2022-11-13T04:08:35;10.20;69.40
37910;DHT22;23741;49.446;8.754;2022-11-13T04:11:04;10.20;69.40
37910;DHT22;23741;49.446;8.754;2022-11-13T04:13:24;10.20;69.40
37910;DHT22;23741;49.446;8.754;2022-11-13T04:15:45;10.20;69.50
37910;DHT22;23741;49.446;8.754;2022-11-13T04:18:06;10.20;70.20
37910;DHT22;23741;49.446;8.754;2022-11-13T04:20:27;10.20;69.40
37910;DHT22;23741;49.446;8.754;2022-11-13T04:22:47;10.20;69.40
37910;DHT22;23741;49.446;8.754;2022-11-13T04:25:07;10.20;69.40
37910;DHT22;23741;49.446;8.754;2022-11-13T04:27:27;10.20;69.40
37910;DHT22;23741;49.446;8.754;2022-11-13T04:29:47;10.20;69.40
37910;DHT22;23741;49.446;8.754;2022-11-13T04:32:08;10.10;70.20
37910;DHT22;23741;49.446;8.754;2022-11-13T04:34:28;10.20;69.50
37910;DHT22;23741;49.446;8.754;2022-11-13T04:36:48;10.10;69.30
37910;DHT22;23741;49.446;8.754;2022-11-13T04:39:08;10.10;69.30
37910;DHT22;23741;49.446;8.754;2022-11-13T04:41:28;10.20;69.40
37910;DHT22;23741;49.446;8.754;2022-11-13T04:44:14;10.10;69.40
37910;DHT22;23741;49.446;8.754;2022-11-13T04:46:34;10.10;69.50
37910;DHT22;23741;49.446;8.754;2022-11-13T04:48:54;10.10;70.40
37910;DHT22;23741;49.446;8.754;2022-11-13T04:51:14;10.10;69.60
37910;DHT22;23741;49.446;8.754;2022-11-13T04:53:35;10.10;69.70
37910;DHT22;23741;49.446;8.754;2022-11-13T04:55:55;10.10;70.40
37910;DHT22;23741;49.446;8.754;2022-11-13T04:58:15;10.10;70.50
37910;DHT22;23741;49.446;8.754;2022-11-13T05:00:37;10.00;70.40
37910;DHT22;23741;49.446;8.754;2022-11-13T05:03:01;10.00;70.20
37910;DHT22;23741;49.446;8.754;2022-11-13T05:05:21;10.00;69.40
37910;DHT22;23741;49.446;8.754;2022-11-13T05:07:41;10.00;69.40
37910;DHT22;23741;49.446;8.754;2022-11-13T05:10:02;10.00;69.40
37910;DHT22;23741;49.446;8.754;2022-11-13T05:12:22;10.00;69.40
37910;DHT22;23741;49.446;8.754;2022-11-13T05:14:42;10.00;69.60
37910;DHT22;23741;49.446;8.754;2022-11-13T05:17:05;10.00;69.70
37910;DHT22;23741;49.446;8.754;2022-11-13T05:19:29;10.00;69.70
37910;DHT22;23741;49.446;8.754;2022-11-13T05:21:49;10.00;69.70
37910;DHT22;23741;49.446;8.754;2022-11-13T05:24:09;10.00;69.70
37910;DHT22;23741;49.446;8.754;2022-11-13T05:26:30;10.00;69.80
37910;DHT22;23741;49.446;8.754;2022-11-13T05:28:51;10.00;69.80
37910;DHT22;23741;49.446;8.754;2022-11-13T05:31:12;9.90;69.80
37910;DHT22;23741;49.446;8.754;2022-11-13T05:33:37;9.90;69.70
37910;DHT22;23741;49.446;8.754;2022-11-13T05:36:05;9.90;69.70
37910;DHT22;23741;49.446;8.754;2022-11-13T05:38:28;9.90;69.80
37910;DHT22;23741;49.446;8.754;2022-11-13T05:40:49;9.90;69.80
37910;DHT22;23741;49.446;8.754;2022-11-13T05:43:10;10.00;70.10
37910;DHT22;23741;49.446;8.754;2022-11-13T05:45:33;9.90;69.90
37910;DHT22;23741;49.446;8.754;2022-11-13T05:47:56;10.00;70.00
37910;DHT22;23741;49.446;8.754;2022-11-13T05:50:16;10.00;70.00
37910;DHT22;23741;49.446;8.754;2022-11-13T05:52:37;10.00;70.10
37910;DHT22;23741;49.446;8.754;2022-11-13T05:54:57;10.00;70.10
37910;DHT22;23741;49.446;8.754;2022-11-13T05:57:20;10.10;70.30
37910;DHT22;23741;49.446;8.754;2022-11-13T05:59:40;10.10;70.40
37910;DHT22;23741;49.446;8.754;2022-11-13T06:02:00;10.20;70.60
37910;DHT22;23741;49.446;8.754;2022-11-13T06:04:31;10.20;70.30
37910;DHT22;23741;49.446;8.754;2022-11-13T06:06:51;10.20;71.10
37910;DHT22;23741;49.446;8.754;2022-11-13T06:09:12;10.30;70.40
37910;DHT22;23741;49.446;8.754;2022-11-13T06:11:33;10.30;70.30
37910;DHT22;23741;49.446;8.754;2022-11-13T06:13:56;10.30;70.20
37910;DHT22;23741;49.446;8.754;2022-11-13T06:16:26;10.40;70.20
37910;DHT22;23741;49.446;8.754;2022-11-13T06:18:49;10.40;70.10
37910;DHT22;23741;49.446;8.754;2022-11-13T06:21:12;10.40;70.10
37910;DHT22;23741;49.446;8.754;2022-11-13T06:23:33;10.40;70.20
37910;DHT22;23741;49.446;8.754;2022-11-13T06:26:16;10.50;70.20
37910;DHT22;23741;49.446;8.754;2022-11-13T06:28:41;10.50;70.20
37910;DHT22;23741;49.446;8.754;2022-11-13T06:31:08;10.50;70.10
37910;DHT22;23741;49.446;8.754;2022-11-13T06:33:29;10.60;70.90
37910;DHT22;23741;49.446;8.754;2022-11-13T06:35:49;10.60;70.10
37910;DHT22;23741;49.446;8.754;2022-11-13T06:38:11;10.60;69.90
37910;DHT22;23741;49.446;8.754;2022-11-13T06:40:38;10.60;70.00
37910;DHT22;23741;49.446;8.754;2022-11-13T06:43:01;10.60;70.70
37910;DHT22;23741;49.446;8.754;2022-11-13T06:45:21;10.70;69.80
37910;DHT22;23741;49.446;8.754;2022-11-13T06:47:42;10.70;69.70
37910;DHT22;23741;49.446;8.754;2022-11-13T06:50:02;10.70;69.70
37910;DHT22;23741;49.446;8.754;2022-11-13T06:52:23;10.70;69.70
37910;DHT22;23741;49.446;8.754;2022-11-13T06:54:43;10.70;69.70
37910;DHT22;23741;49.446;8.754;2022-11-13T06:57:03;10.70;69.70
37910;DHT22;23741;49.446;8.754;2022-11-13T06:59:23;10.70;69.60
37910;DHT22;23741;49.446;8.754;2022-11-13T07:01:43;10.80;69.80
37910;DHT22;23741;49.446;8.754;2022-11-13T07:04:03;10.80;70.50
37910;DHT22;23741;49.446;8.754;2022-11-13T07:06:25;10.80;69.70
37910;DHT22;23741;49.446;8.754;2022-11-13T07:08:46;10.80;69.70
37910;DHT22;23741;49.446;8.754;2022-11-13T07:11:11;10.80;69.60
37910;DHT22;23741;49.446;8.754;2022-11-13T07:13:35;10.90;69.70
37910;DHT22;23741;49.446;8.754;2022-11-13T07:15:59;10.90;69.70
37910;DHT22;23741;49.446;8.754;2022-11-13T07:18:35;10.90;69.80
37910;DHT22;23741;49.446;8.754;2022-11-13T07:20:55;10.90;69.70
37910;DHT22;23741;49.446;8.754;2022-11-13T07:23:16;11.00;70.40
37910;DHT22;23741;49.446;8.754;2022-11-13T07:25:36;10.90;69.60
37910;DHT22;23741;49.446;8.754;2022-11-13T07:27:56;11.00;69.60
37910;DHT22;23741;49.446;8.754;2022-11-13T07:30:19;11.00;69.50
37910;DHT22;23741;49.446;8.754;2022-11-13T07:32:39;11.00;70.30
37910;DHT22;23741;49.446;8.754;2022-11-13T07:35:03;11.00;69.60
37910;DHT22;23741;49.446;8.754;2022-11-13T07:37:23;11.00;69.50
37910;DHT22;23741;49.446;8.754;2022-11-13T07:39:43;11.00;70.30
37910;DHT22;23741;49.446;8.754;2022-11-13T07:42:03;11.10;70.40
37910;DHT22;23741;49.446;8.754;2022-11-13T07:44:24;11.10;69.50
37910;DHT22;23741;49.446;8.754;2022-11-13T07:47:04;11.10;70.20
37910;DHT22;23741;49.446;8.754;2022-11-13T07:49:24;11.10;69.40
37910;DHT22;23741;49.446;8.754;2022-11-13T07:51:54;11.10;69.40
37910;DHT22;23741;49.446;8.754;2022-11-13T07:54:14;11.10;69.40
37910;DHT22;23741;49.446;8.754;2022-11-13T07:56:34;11.10;69.30
37910;DHT22;23741;49.446;8.754;2022-11-13T07:58:54;11.20;69.10
37910;DHT22;23741;49.446;8.754;2022-11-13T08:01:15;11.20;69.20
37910;DHT22;23741;49.446;8.754;2022-11-13T08:03:35;11.20;69.30
37910;DHT22;23741;49.446;8.754;2022-11-13T08:06:00;11.20;69.10
37910;DHT22;23741;49.446;8.754;2022-11-13T08:08:21;11.20;69.20
37910;DHT22;23741;49.446;8.754;2022-11-13T08:10:41;11.20;70.00
37910;DHT22;23741;49.446;8.754;2022-11-13T08:13:03;11.20;70.10
37910;DHT22;23741;49.446;8.754;2022-11-13T08:15:23;11.30;69.20
37910;DHT22;23741;49.446;8.754;2022-11-13T08:17:43;11.30;69.30
37910;DHT22;23741;49.446;8.754;2022-11-13T08:20:04;11.30;69.40
37910;DHT22;23741;49.446;8.754;2022-11-13T08:22:25;11.30;70.30
37910;DHT22;23741;49.446;8.754;2022-11-13T08:24:45;11.40;69.40
37910;DHT22;23741;49.446;8.754;2022-11-13T08:27:05;11.40;70.20
37910;DHT22;23741;49.446;8.754;2022-11-13T08:29:25;11.40;70.10
37910;DHT22;23741;49.446;8.754;2022-11-13T08:31:46;11.40;70.20
37910;DHT22;23741;49.446;8.754;2022-11-13T08:34:06;11.50;69.50
37910;DHT22;23741;49.446;8.754;2022-11-13T08:36:26;11.50;69.50
37910;DHT22;23741;49.446;8.754;2022-11-13T08:38:46;11.60;70.40
37910;DHT22;23741;49.446;8.754;2022-11-13T08:41:06;11.60;69.60
37910;DHT22;23741;49.446;8.754;2022-11-13T08:43:28;11.60;69.40
37910;DHT22;23741;49.446;8.754;2022-11-13T08:45:49;11.70;69.40
37910;DHT22;23741;49.446;8.754;2022-11-13T08:48:09;11.70;69.30
37910;DHT22;23741;49.446;8.754;2022-11-13T08:50:29;11.70;69.10
37910;DHT22;23741;49.446;8.754;2022-11-13T08:52:56;11.70;69.10
37910;DHT22;23741;49.446;8.754;2022-11-13T08:55:17;11.70;70.10
37910;DHT22;23741;49.446;8.754;2022-11-13T08:57:37;11.80;69.40
37910;DHT22;23741;49.446;8.754;2022-11-13T08:59:59;11.70;69.10
37910;DHT22;23741;49.446;8.754;2022-11-13T09:02:20;11.80;69.30
37910;DHT22;23741;49.446;8.754;2022-11-13T09:04:41;11.80;69.40
37910;DHT22;23741;49.446;8.754;2022-11-13T09:07:01;11.80;69.30
37910;DHT22;23741;49.446;8.754;2022-11-13T09:09:21;11.80;69.30
37910;DHT22;23741;49.446;8.754;2022-11-13T09:11:42;11.80;69.50
37910;DHT22;23741;49.446;8.754;2022-11-13T09:14:02;11.90;69.70
37910;DHT22;23741;49.446;8.754;2022-11-13T09:16:22;11.90;69.70
37910;DHT22;23741;49.446;8.754;2022-11-13T09:18:43;11.90;69.70
37910;DHT22;23741;49.446;8.754;2022-11-13T09:21:03;12.00;69.80
37910;DHT22;23741;49.446;8.754;2022-11-13T09:23:23;12.00;69.80
37910;DHT22;23741;49.446;8.754;2022-11-13T09:25:43;12.00;69.90
37910;DHT22;23741;49.446;8.754;2022-11-13T09:28:07;12.10;69.80
37910;DHT22;23741;49.446;8.754;2022-11-13T09:30:29;12.10;69.80
37910;DHT22;23741;49.446;8.754;2022-11-13T09:32:56;12.20;69.80
37910;DHT22;23741;49.446;8.754;2022-11-13T09:35:16;12.30;69.70
37910;DHT22;23741;49.446;8.754;2022-11-13T09:37:52;12.30;69.60
37910;DHT22;23741;49.446;8.754;2022-11-13T09:40:14;12.40;69.70
37910;DHT22;23741;49.446;8.754;2022-11-13T09:42:39;12.50;69.80
37910;DHT22;23741;49.446;8.754;2022-11-13T09:45:01;12.50;69.80
37910;DHT22;23741;49.446;8.754;2022-11-13T09:47:24;12.60;70.80
37910;DHT22;23741;49.446;8.754;2022-11-13T09:49:48;12.70;70.00
37910;DHT22;23741;49.446;8.754;2022-11-13T09:52:17;12.80;70.10
37910;DHT22;23741;49.446;8.754;2022-11-13T09:54:38;12.80;70.00
37910;DHT22;23741;49.446;8.754;2022-11-13T09:59:51;13.00;70.10
37910;DHT22;23741;49.446;8.754;2022-11-13T10:02:34;13.10;69.90
37910;DHT22;23741;49.446;8.754;2022-11-13T10:05:12;13.20;69.90
37910;DHT22;23741;49.446;8.754;2022-11-13T10:07:35;13.30;70.00
37910;DHT22;23741;49.446;8.754;2022-11-13T10:10:12;13.40;70.00
37910;DHT22;23741;49.446;8.754;2022-11-13T10:12:35;13.50;70.00
37910;DHT22;23741;49.446;8.754;2022-11-13T10:14:59;13.70;70.80
37910;DHT22;23741;49.446;8.754;2022-11-13T10:17:27;13.70;70.80
37910;DHT22;23741;49.446;8.754;2022-11-13T10:19:53;13.80;69.90
37910;DHT22;23741;49.446;8.754;2022-11-13T10:24:53;14.00;69.80
37910;DHT22;23741;49.446;8.754;2022-11-13T10:27:17;14.10;69.70
37910;DHT22;23741;49.446;8.754;2022-11-13T10:29:37;14.10;69.60
37910;DHT22;23741;49.446;8.754;2022-11-13T10:31:58;14.20;70.30
37910;DHT22;23741;49.446;8.754;2022-11-13T10:34:19;14.30;69.20
37910;DHT22;23741;49.446;8.754;2022-11-13T10:37:06;14.40;69.20
37910;DHT22;23741;49.446;8.754;2022-11-13T10:39:39;14.40;69.10
37910;DHT22;23741;49.446;8.754;2022-11-13T10:41:59;14.50;69.10
37910;DHT22;23741;49.446;8.754;2022-11-13T10:44:32;14.60;69.90
37910;DHT22;23741;49.446;8.754;2022-11-13T10:47:07;14.70;69.00
37910;DHT22;23741;49.446;8.754;2022-11-13T10:49:32;14.80;69.00
37910;DHT22;23741;49.446;8.754;2022-11-13T10:51:54;14.80;69.70
37910;DHT22;23741;49.446;8.754;2022-11-13T10:56:54;15.00;68.60
37910;DHT22;23741;49.446;8.754;2022-11-13T10:59:16;15.10;68.50
37910;DHT22;23741;49.446;8.754;2022-11-13T11:01:36;15.20;68.30
37910;DHT22;23741;49.446;8.754;2022-11-13T11:03:57;15.20;68.20
37910;DHT22;23741;49.446;8.754;2022-11-13T11:06:23;15.30;68.10
37910;DHT22;23741;49.446;8.754;2022-11-13T11:11:34;15.40;67.60
37910;DHT22;23741;49.446;8.754;2022-11-13T11:16:36;15.50;67.20
37910;DHT22;23741;49.446;8.754;2022-11-13T11:18:58;15.50;66.80
37910;DHT22;23741;49.446;8.754;2022-11-13T11:21:22;15.50;67.00
37910;DHT22;23741;49.446;8.754;2022-11-13T11:26:20;15.50;66.90
37910;DHT22;23741;49.446;8.754;2022-11-13T11:31:24;15.60;66.80
37910;DHT22;23741;49.446;8.754;2022-11-13T11:33:49;15.60;66.80
37910;DHT22;23741;49.446;8.754;2022-11-13T11:36:21;15.70;66.70
37910;DHT22;23741;49.446;8.754;2022-11-13T11:41:13;15.70;66.70
37910;DHT22;23741;49.446;8.754;2022-11-13T11:43:47;15.80;67.00
37910;DHT22;23741;49.446;8.754;2022-11-13T11:46:11;15.80;66.60
37910;DHT22;23741;49.446;8.754;2022-11-13T11:48:32;15.90;66.60
37910;DHT22;23741;49.446;8.754;2022-11-13T11:53:33;15.90;66.60
37910;DHT22;23741;49.446;8.754;2022-11-13T11:56:10;16.00;66.70
37910;DHT22;23741;49.446;8.754;2022-11-13T12:01:00;16.10;66.70
37910;DHT22;23741;49.446;8.754;2022-11-13T12:08:37;16.20;66.60
37910;DHT22;23741;49.446;8.754;2022-11-13T12:11:04;16.20;66.40
37910;DHT22;23741;49.446;8.754;2022-11-13T12:26:04;16.70;66.70
37910;DHT22;23741;49.446;8.754;2022-11-13T12:35:33;17.10;66.60
37910;DHT22;23741;49.446;8.754;2022-11-13T12:40:18;17.30;66.30
37910;DHT22;23741;49.446;8.754;2022-11-13T12:45:19;17.50;66.00
37910;DHT22;23741;49.446;8.754;2022-11-13T12:47:43;17.60;65.90
37910;DHT22;23741;49.446;8.754;2022-11-13T12:50:05;17.60;65.50
37910;DHT22;23741;49.446;8.754;2022-11-13T12:52:25;17.70;65.30
37910;DHT22;23741;49.446;8.754;2022-11-13T12:54:45;17.70;65.20
37910;DHT22;23741;49.446;8.754;2022-11-13T12:59:29;17.80;65.00
37910;DHT22;23741;49.446;8.754;2022-11-13T13:04:42;17.80;65.50
37910;DHT22;23741;49.446;8.754;2022-11-13T13:09:30;17.90;64.70
37910;DHT22;23741;49.446;8.754;2022-11-13T13:16:40;17.90;65.10
37910;DHT22;23741;49.446;8.754;2022-11-13T13:19:07;17.90;64.50
37910;DHT22;23741;49.446;8.754;2022-11-13T13:21:41;17.90;64.10
37910;DHT22;23741;49.446;8.754;2022-11-13T13:24:06;17.90;64.00
37910;DHT22;23741;49.446;8.754;2022-11-13T13:26:27;17.90;64.30
37910;DHT22;23741;49.446;8.754;2022-11-13T13:33:49;17.90;65.50
37910;DHT22;23741;49.446;8.754;2022-11-13T13:38:53;18.00;64.00
37910;DHT22;23741;49.446;8.754;2022-11-13T13:46:42;18.10;64.30
37910;DHT22;23741;49.446;8.754;2022-11-13T13:49:04;18.20;64.20
37910;DHT22;23741;49.446;8.754;2022-11-13T13:51:32;18.30;64.00
37910;DHT22;23741;49.446;8.754;2022-11-13T13:53:54;18.40;63.80
37910;DHT22;23741;49.446;8.754;2022-11-13T13:56:15;18.40;64.40
37910;DHT22;23741;49.446;8.754;2022-11-13T13:58:36;18.40;63.40
37910;DHT22;23741;49.446;8.754;2022-11-13T14:00:58;18.50;64.00
37910;DHT22;23741;49.446;8.754;2022-11-13T14:03:38;18.50;64.30
37910;DHT22;23741;49.446;8.754;2022-11-13T14:08:38;18.40;63.40
37910;DHT22;23741;49.446;8.754;2022-11-13T14:11:01;18.50;63.10
37910;DHT22;23741;49.446;8.754;2022-11-13T14:13:23;18.50;63.00
37910;DHT22;23741;49.446;8.754;2022-11-13T14:15:44;18.50;63.20
37910;DHT22;23741;49.446;8.754;2022-11-13T14:20:24;18.50;62.90
37910;DHT22;23741;49.446;8.754;2022-11-13T14:22:45;18.50;62.60
37910;DHT22;23741;49.446;8.754;2022-11-13T14:25:19;18.40;62.60
37910;DHT22;23741;49.446;8.754;2022-11-13T14:27:41;18.50;62.50
37910;DHT22;23741;49.446;8.754;2022-11-13T14:30:01;18.40;61.30
37910;DHT22;23741;49.446;8.754;2022-11-13T14:32:24;18.40;61.90
37910;DHT22;23741;49.446;8.754;2022-11-13T14:34:45;18.40;62.10
37910;DHT22;23741;49.446;8.754;2022-11-13T14:37:16;18.30;61.40
37910;DHT22;23741;49.446;8.754;2022-11-13T14:39:37;18.30;61.50
37910;DHT22;23741;49.446;8.754;2022-11-13T14:41:57;18.20;61.30
37910;DHT22;23741;49.446;8.754;2022-11-13T14:44:25;18.10;61.50
37910;DHT22;23741;49.446;8.754;2022-11-13T14:46:57;18.00;62.40
37910;DHT22;23741;49.446;8.754;2022-11-13T14:49:27;18.00;61.30
37910;DHT22;23741;49.446;8.754;2022-11-13T14:51:52;17.90;61.60
37910;DHT22;23741;49.446;8.754;2022-11-13T14:57:29;17.70;61.40
37910;DHT22;23741;49.446;8.754;2022-11-13T14:59:49;17.50;61.70
37910;DHT22;23741;49.446;8.754;2022-11-13T15:02:10;17.50;61.80
37910;DHT22;23741;49.446;8.754;2022-11-13T15:04:31;17.30;62.30
37910;DHT22;23741;49.446;8.754;2022-11-13T15:06:59;17.20;62.50
37910;DHT22;23741;49.446;8.754;2022-11-13T15:09:21;17.20;61.90
37910;DHT22;23741;49.446;8.754;2022-11-13T15:11:42;17.10;62.00
37910;DHT22;23741;49.446;8.754;2022-11-13T15:14:02;17.00;62.10
37910;DHT22;23741;49.446;8.754;2022-11-13T15:16:25;17.00;62.10
37910;DHT22;23741;49.446;8.754;2022-11-13T15:18:54;16.90;62.10
37910;DHT22;23741;49.446;8.754;2022-11-13T15:21:16;16.80;63.00
37910;DHT22;23741;49.446;8.754;2022-11-13T15:23:37;16.70;62.40
37910;DHT22;23741;49.446;8.754;2022-11-13T15:25:57;16.70;62.30
37910;DHT22;23741;49.446;8.754;2022-11-13T15:28:18;16.60;63.00
37910;DHT22;23741;49.446;8.754;2022-11-13T15:30:38;16.50;62.20
37910;DHT22;23741;49.446;8.754;2022-11-13T15:32:58;16.50;62.40
37910;DHT22;23741;49.446;8.754;2022-11-13T15:35:18;16.50;62.50
37910;DHT22;23741;49.446;8.754;2022-11-13T15:37:39;16.40;62.60
37910;DHT22;23741;49.446;8.754;2022-11-13T15:39:59;16.40;62.60
37910;DHT22;23741;49.446;8.754;2022-11-13T15:42:27;16.30;62.40
37910;DHT22;23741;49.446;8.754;2022-11-13T15:44:47;16.30;62.50
37910;DHT22;23741;49.446;8.754;2022-11-13T15:47:27;16.20;62.40
37910;DHT22;23741;49.446;8.754;2022-11-13T15:49:47;16.20;62.60
37910;DHT22;23741;49.446;8.754;2022-11-13T15:52:28;16.10;63.40
37910;DHT22;23741;49.446;8.754;2022-11-13T15:54:50;16.10;62.60
37910;DHT22;23741;49.446;8.754;2022-11-13T15:57:15;16.10;62.30
37910;DHT22;23741;49.446;8.754;2022-11-13T15:59:36;16.00;62.40
37910;DHT22;23741;49.446;8.754;2022-11-13T16:01:57;15.90;62.30
37910;DHT22;23741;49.446;8.754;2022-11-13T16:04:17;15.90;62.20
37910;DHT22;23741;49.446;8.754;2022-11-13T16:06:37;15.90;62.20
37910;DHT22;23741;49.446;8.754;2022-11-13T16:08:59;15.90;63.10
37910;DHT22;23741;49.446;8.754;2022-11-13T16:11:19;15.80;62.00
37910;DHT22;23741;49.446;8.754;2022-11-13T16:13:40;15.80;62.10
37910;DHT22;23741;49.446;8.754;2022-11-13T16:16:00;15.80;62.20
37910;DHT22;23741;49.446;8.754;2022-11-13T16:18:24;15.70;63.10
37910;DHT22;23741;49.446;8.754;2022-11-13T16:20:45;15.70;62.40
37910;DHT22;23741;49.446;8.754;2022-11-13T16:23:07;15.70;62.30
37910;DHT22;23741;49.446;8.754;2022-11-13T16:25:27;15.60;62.20
37910;DHT22;23741;49.446;8.754;2022-11-13T16:27:47;15.60;62.30
37910;DHT22;23741;49.446;8.754;2022-11-13T16:30:12;15.60;62.30
37910;DHT22;23741;49.446;8.754;2022-11-13T16:32:32;15.50;62.30
37910;DHT22;23741;49.446;8.754;2022-11-13T16:34:53;15.50;62.40